Messwerte Galveston

Temperatur

Temperatur
°C
1614614400 10.00 10.00 20
1614618000 11.00 11.00 19
1614621600 12.00 12.00 18
1614625200 13.00 13.00 19
1614628800 14.00 14.00 17
1614632400 15.00 15.00
1614636000 16.00 16.00 17
1614639600 17.00 17.00 17
1614643200 18.00 18.00 16
1614646800 19.00 19.00 16
1614650400 20.00 20.00 16
1614654000 21.00 21.00 14
1614657600 22.00 22.00 14
1614661200 23.00 23.00 13
1614664800 0.00 0.00 13
1614668400 1.00 1.00 13
1614672000 2.00 2.00 12
1614675600 3.00 3.00
1614679200 4.00 4.00 11
1614682800 5.00 5.00 11
1614686400 6.00 6.00 11
1614690000 7.00 7.00 11
1614693600 8.00 8.00 11
1614697200 9.00 9.00 11

Aktuellste Messwerte

Wettercharakter
Wetter: bedeckt
Temperatur
11 °C
Feuchtigkeit
80 %
Wind
35 km/hWindrichtung: Nord
Böen
50 km/h
Luftdruck
1024 hPa
Messzeit: 2. März 2021, 10.00Datenquelle: METAR

Weitere Messstationen in der Nähe

Messstation Temperatur Entfernung
Houston / Ellington 10 °C 49 km
Houston 11 °C 49 km
Houston Hobby 12 °C 61 km
Angleton / Lake Jackson 11 °C 67 km
Houston 12 °C 90 km
Houston 12 °C 91 km
Port Arthur 9 °C 104 km

Wind

Windrichtung Böen Mittelwind
° km/h km/h
1614614400 10.00 9.00 - 10.00 120° 10
1614618000 11.00 10.00 - 11.00 350° 20
1614621600 12.00 11.00 - 12.00 350° 30
1614625200 13.00 12.00 - 13.00 350° 45 35
1614628800 14.00 13.00 - 14.00 360° 45 35
1614632400 15.00 14.00 - 15.00
1614636000 16.00 15.00 - 16.00 10° 45 35
1614639600 17.00 16.00 - 17.00 30° 50 40
1614643200 18.00 17.00 - 18.00 30° 45 35
1614646800 19.00 18.00 - 19.00 30° 30
1614650400 20.00 19.00 - 20.00 20° 40 30
1614654000 21.00 20.00 - 21.00 360° 25
1614657600 22.00 21.00 - 22.00 360° 45 35
1614661200 23.00 22.00 - 23.00 340° 45 35
1614664800 0.00 23.00 - 0.00 350° 50 45
1614668400 1.00 0.00 - 1.00 360° 45 35
1614672000 2.00 1.00 - 2.00 350° 55 40
1614675600 3.00 2.00 - 3.00
1614679200 4.00 3.00 - 4.00 360° 60 40
1614682800 5.00 4.00 - 5.00 360° 50 35
1614686400 6.00 5.00 - 6.00 350° 50 35
1614690000 7.00 6.00 - 7.00 350° 55 35
1614693600 8.00 7.00 - 8.00 360° 50 35
1614697200 9.00 8.00 - 9.00 360° 50 35

Ihre Wetterstation

Fehlt Ihre Wetterstation auf unserem Portal?

Schreiben Sie an network@meteonews.ch

Klima

Wann ist es am wärmsten? Wann regnet es am wenigsten? Unsere Klimadaten geben Auskunft.